Whitetop, Virginia
Current Conditions -  °F | °C
As of 8:15 PM on Wednesday 22 Oct 2014 (Local Time) from KGEV Reporting Station
Scattered Clouds Scattered Clouds  
Wind Chill:   Ceiling: Unl
Heat Index:   Visibility: 10mi
Dew Point:   Wind: 17mph
Humidity: 73%   Direction: 310°NW
Pressure: 30.1"   Gusts: 24mph
Location:  36.6°N, 81.63°W
Report Text: KGEV 230015Z AUTO 31015G21KT 10SM SCT019 06/01 A3010 RMK AO2 T00550010
Loading
Personal Weather Stations






























Interactive Weather Map
Tropical Storm Tracking
New forecast layout! Learn more

10-Day Weather Forecast

Advertisements
Track Severe Weather on mobile